createdAt,value
2022-08-02T13:30:27.242Z,5.80
2022-08-02T13:33:01.141Z,5.38
2022-08-02T13:35:32.165Z,7.40
2022-08-02T13:38:03.816Z,5.68
2022-08-02T13:43:24.058Z,5.03
2022-08-02T13:46:14.305Z,5.35
2022-08-02T13:48:44.425Z,7.30
2022-08-02T13:51:15.465Z,6.22
2022-08-02T13:53:47.758Z,8.88
2022-08-02T13:56:18.135Z,7.18
2022-08-02T13:58:48.320Z,6.38
2022-08-02T14:01:18.610Z,6.35
2022-08-02T14:04:08.673Z,6.32
2022-08-02T14:06:40.409Z,5.20
2022-08-02T14:09:15.669Z,5.03
2022-08-02T14:11:48.767Z,4.72
2022-08-02T14:14:19.023Z,5.03
2022-08-02T14:16:49.265Z,4.82
2022-08-02T14:19:19.485Z,4.90
2022-08-02T14:21:50.401Z,4.88
2022-08-02T14:24:28.921Z,4.45
2022-08-02T14:26:59.338Z,4.93
2022-08-02T14:29:29.401Z,5.75
2022-08-02T14:31:59.382Z,4.65
2022-08-02T14:34:29.638Z,5.10
2022-08-02T14:36:59.864Z,4.55
2022-08-02T14:39:42.472Z,4.88
2022-08-02T14:42:20.542Z,4.40
2022-08-02T14:44:50.804Z,3.90
2022-08-02T14:47:21.051Z,3.92
2022-08-02T14:49:51.565Z,3.67
2022-08-02T14:52:22.580Z,4.13
2022-08-02T14:54:52.855Z,3.38
2022-08-02T14:57:23.312Z,3.90
2022-08-02T14:59:54.665Z,3.85
2022-08-02T15:02:24.832Z,3.57
2022-08-02T15:04:54.854Z,3.55
2022-08-02T15:07:24.879Z,3.55
2022-08-02T15:09:54.873Z,3.45
2022-08-02T15:12:25.156Z,2.92
2022-08-02T15:14:55.632Z,3.20
2022-08-02T15:17:25.831Z,3.58
2022-08-02T15:20:00.311Z,3.20
2022-08-02T15:22:32.627Z,3.17
2022-08-02T15:25:03.424Z,3.38
2022-08-02T15:27:33.891Z,3.35
2022-08-02T15:30:08.337Z,3.92
2022-08-02T15:32:38.531Z,2.90
2022-08-02T15:35:09.795Z,4.05
2022-08-02T15:40:12.878Z,3.55
2022-08-02T15:42:43.391Z,3.78
2022-08-02T15:45:15.492Z,3.97
2022-08-02T15:47:48.087Z,3.38
2022-08-02T15:50:21.757Z,4.28
2022-08-02T15:52:52.066Z,3.20
2022-08-02T15:55:22.343Z,3.88
2022-08-02T15:57:52.366Z,2.95
2022-08-02T16:00:22.810Z,2.80
2022-08-02T16:02:55.806Z,3.17
2022-08-02T16:05:26.093Z,3.00
2022-08-02T16:07:56.450Z,3.05
2022-08-02T16:10:26.552Z,3.53
2022-08-02T16:13:17.746Z,2.70
2022-08-02T16:15:47.973Z,3.33
2022-08-02T16:18:18.420Z,2.70
2022-08-02T16:20:48.666Z,3.47
2022-08-02T16:23:18.907Z,3.30
2022-08-02T16:26:09.577Z,2.50
2022-08-02T16:28:39.888Z,3.10
2022-08-02T16:31:11.709Z,3.90
2022-08-02T16:33:42.121Z,3.00
2022-08-02T16:36:16.307Z,3.13
2022-08-02T16:38:49.795Z,3.15
2022-08-02T16:41:20.006Z,2.72
2022-08-02T16:43:50.641Z,3.22
2022-08-02T16:46:20.738Z,3.17
2022-08-02T16:48:51.755Z,3.22
2022-08-02T16:51:22.070Z,3.42
2022-08-02T16:54:00.300Z,3.40
2022-08-02T16:56:31.605Z,3.10
2022-08-02T16:59:03.868Z,3.37
2022-08-02T17:02:03.186Z,2.75
2022-08-02T17:04:27.514Z,3.50
2022-08-02T17:06:59.113Z,3.15
2022-08-02T17:10:02.480Z,3.65
2022-08-02T17:12:21.904Z,3.78
2022-08-02T17:14:55.622Z,3.60
2022-08-02T17:17:34.282Z,3.17
2022-08-02T17:20:06.356Z,3.35
2022-08-02T17:22:37.169Z,3.08
2022-08-02T17:25:11.172Z,3.63
2022-08-02T17:27:42.275Z,3.53
2022-08-02T17:30:13.320Z,3.47
2022-08-02T17:32:45.494Z,3.70
2022-08-02T17:35:16.428Z,3.05
2022-08-02T17:40:30.243Z,3.95
2022-08-02T17:43:00.267Z,3.33
2022-08-02T17:45:59.811Z,2.97
2022-08-02T17:48:21.695Z,4.20
2022-08-02T17:50:59.802Z,3.10
2022-08-02T17:53:36.285Z,3.08
2022-08-02T17:56:06.844Z,3.58
2022-08-02T17:58:37.010Z,3.65
2022-08-02T18:01:24.228Z,3.42
2022-08-02T18:03:54.811Z,3.78
2022-08-02T18:06:26.065Z,3.17
2022-08-02T18:11:52.701Z,3.08
2022-08-02T18:14:24.444Z,3.30
2022-08-02T18:16:56.683Z,3.72
2022-08-02T18:19:33.123Z,4.03
2022-08-02T18:22:13.750Z,3.55
2022-08-02T18:24:44.259Z,3.87
2022-08-02T18:27:17.674Z,3.58
2022-08-02T18:30:00.005Z,3.88
2022-08-02T18:33:55.982Z,3.08
2022-08-02T18:35:29.816Z,3.70
2022-08-02T18:38:04.023Z,3.80
2022-08-02T18:40:41.368Z,3.90
2022-08-02T18:43:14.280Z,3.50
2022-08-02T18:46:06.081Z,4.03
2022-08-02T18:48:36.212Z,4.25
2022-08-02T18:53:41.521Z,4.03
2022-08-02T18:56:20.497Z,3.95
2022-08-02T18:58:58.059Z,3.58
2022-08-02T19:01:32.194Z,4.00
2022-08-02T19:04:05.117Z,4.57
2022-08-02T19:06:35.545Z,3.80
2022-08-02T19:09:13.526Z,3.63
2022-08-02T19:11:47.558Z,4.47
2022-08-02T19:14:28.106Z,4.63
2022-08-02T19:17:15.707Z,4.10
2022-08-02T19:19:52.605Z,4.15
2022-08-02T19:22:27.125Z,4.53
2022-08-02T19:27:33.934Z,4.40
2022-08-02T19:30:07.530Z,3.50
2022-08-02T19:32:40.198Z,4.53
2022-08-02T19:35:29.116Z,4.60
2022-08-02T19:38:12.108Z,4.30
2022-08-02T19:40:45.846Z,4.10
2022-08-02T19:44:22.976Z,4.13
2022-08-02T19:46:07.394Z,4.55
2022-08-02T19:48:47.455Z,4.45
2022-08-02T19:51:49.760Z,3.92
2022-08-02T19:54:10.553Z,4.03
2022-08-02T19:56:42.525Z,4.00
2022-08-02T19:59:14.108Z,3.20
2022-08-02T20:01:48.583Z,4.77
2022-08-02T20:04:23.481Z,3.40
2022-08-02T20:06:54.238Z,3.50
2022-08-02T20:09:33.231Z,4.10
2022-08-02T20:12:04.802Z,3.95
2022-08-02T20:14:35.196Z,4.45
2022-08-02T20:17:09.701Z,4.20
2022-08-02T20:19:46.359Z,5.38
2022-08-02T20:22:17.984Z,4.47
2022-08-02T20:24:48.652Z,4.60
2022-08-02T20:27:23.820Z,5.22
2022-08-02T20:29:55.240Z,3.67
2022-08-02T20:32:25.745Z,3.92
2022-08-02T20:34:55.776Z,4.65
2022-08-02T20:37:59.578Z,4.43
2022-08-02T20:40:18.501Z,4.47
2022-08-02T20:42:50.054Z,4.63
2022-08-02T20:45:24.569Z,5.22
2022-08-02T20:48:00.063Z,4.93
2022-08-02T20:50:49.541Z,6.18
2022-08-02T20:53:26.125Z,5.30
2022-08-02T20:56:00.668Z,5.25
2022-08-02T20:58:31.157Z,5.47
2022-08-02T21:01:01.637Z,5.05
2022-08-02T21:03:40.030Z,5.30
2022-08-02T21:06:14.908Z,5.05
2022-08-02T21:08:47.429Z,5.13
2022-08-02T21:11:18.741Z,4.60
2022-08-02T21:16:39.417Z,4.50
2022-08-02T21:19:10.027Z,4.13
2022-08-02T21:21:40.510Z,5.00
2022-08-02T21:24:12.510Z,5.43
2022-08-02T21:26:42.727Z,4.63
2022-08-02T21:29:19.147Z,4.53
2022-08-02T21:31:49.451Z,5.35
2022-08-02T21:34:27.446Z,4.43
2022-08-02T21:36:58.974Z,4.32
2022-08-02T21:39:29.376Z,4.70
2022-08-02T21:41:59.840Z,4.30
2022-08-02T21:44:29.844Z,4.28
2022-08-02T21:47:00.005Z,4.28
2022-08-02T21:50:09.179Z,4.27
2022-08-02T21:52:25.905Z,4.35
2022-08-02T21:55:00.187Z,3.80
2022-08-02T21:57:34.821Z,3.97
2022-08-02T22:00:28.862Z,3.72
2022-08-02T22:02:59.373Z,4.03
2022-08-02T22:05:49.615Z,4.45
2022-08-02T22:08:21.772Z,3.35
2022-08-02T22:11:03.851Z,3.55
2022-08-02T22:13:38.915Z,4.07
2022-08-02T22:16:18.303Z,4.20
2022-08-02T22:18:51.366Z,4.78
2022-08-02T22:21:27.670Z,3.95
2022-08-02T22:24:12.917Z,4.38
2022-08-02T22:26:50.502Z,3.72
2022-08-02T22:29:21.114Z,3.97
2022-08-02T22:31:51.154Z,4.38
2022-08-02T22:34:36.856Z,4.07
2022-08-02T22:38:15.235Z,5.05
2022-08-02T22:40:08.642Z,4.18
2022-08-02T22:42:40.182Z,4.82
2022-08-02T22:45:11.885Z,5.07
2022-08-02T22:47:51.016Z,4.78
2022-08-02T22:50:22.034Z,5.97
2022-08-02T22:52:52.117Z,6.33
2022-08-02T22:55:22.602Z,6.30
2022-08-02T22:57:57.210Z,5.53
2022-08-02T23:00:29.017Z,5.47
2022-08-02T23:02:59.253Z,7.55
